createdAt,value
2019-02-16T00:00:51.321Z,9.72
2019-02-16T00:01:52.192Z,9.74
2019-02-16T00:02:51.409Z,9.62
2019-02-16T00:03:51.299Z,9.65
2019-02-16T00:04:51.290Z,9.64
2019-02-16T00:05:51.284Z,9.66
2019-02-16T00:06:51.312Z,9.66
2019-02-16T00:07:51.240Z,9.59
2019-02-16T00:08:51.243Z,9.59
2019-02-16T00:09:51.232Z,9.54
2019-02-16T00:10:51.220Z,9.54
2019-02-16T00:11:51.422Z,9.48
2019-02-16T00:12:51.192Z,9.54
2019-02-16T00:13:51.182Z,9.55
2019-02-16T00:14:51.225Z,9.55
2019-02-16T00:15:51.182Z,9.54
2019-02-16T00:16:51.175Z,9.54
2019-02-16T00:17:51.341Z,9.51
2019-02-16T00:18:51.159Z,9.54
2019-02-16T00:19:51.123Z,9.50
2019-02-16T00:20:51.143Z,9.48
2019-02-16T00:21:51.115Z,9.48
2019-02-16T00:22:51.099Z,9.39
2019-02-16T00:23:51.197Z,9.46
2019-02-16T00:24:51.695Z,9.46
2019-02-16T00:25:51.171Z,9.50
2019-02-16T00:26:51.150Z,9.43
2019-02-16T00:27:51.059Z,9.48
2019-02-16T00:28:51.129Z,9.40
2019-02-16T00:29:51.797Z,9.39
2019-02-16T00:30:51.019Z,9.41
2019-02-16T00:31:51.006Z,9.34
2019-02-16T00:32:51.027Z,9.44
2019-02-16T00:33:50.991Z,9.37
2019-02-16T00:34:51.041Z,9.39
2019-02-16T00:35:50.958Z,9.37
2019-02-16T00:36:50.948Z,9.44
2019-02-16T00:37:50.942Z,9.37
2019-02-16T00:38:51.375Z,9.39
2019-02-16T00:39:50.926Z,9.41
2019-02-16T00:40:50.889Z,9.39
2019-02-16T00:41:50.916Z,9.32
2019-02-16T00:42:51.012Z,9.29
2019-02-16T00:43:50.877Z,9.32
2019-02-16T00:44:50.878Z,9.26
2019-02-16T00:45:51.879Z,9.25
2019-02-16T00:46:50.896Z,9.25
2019-02-16T00:47:50.805Z,9.18
2019-02-16T00:48:50.826Z,9.19
2019-02-16T00:49:50.930Z,9.16
2019-02-16T00:50:50.798Z,9.06
2019-02-16T00:51:50.776Z,9.21
2019-02-16T00:52:50.811Z,9.16
2019-02-16T00:53:50.828Z,9.19
2019-02-16T00:54:50.843Z,9.22
2019-02-16T00:55:50.782Z,9.13
2019-02-16T00:56:50.808Z,9.00
2019-02-16T00:57:50.791Z,9.10
2019-02-16T00:58:50.697Z,9.11
2019-02-16T00:59:50.694Z,9.14
2019-02-16T01:00:50.774Z,9.16
2019-02-16T01:01:50.643Z,9.06
2019-02-16T01:02:50.643Z,9.11
2019-02-16T01:03:50.611Z,9.11
2019-02-16T01:04:51.205Z,9.11
2019-02-16T01:05:50.619Z,8.97
2019-02-16T01:06:50.691Z,8.95
2019-02-16T01:07:50.602Z,8.94
2019-02-16T01:08:50.701Z,9.02
2019-02-16T01:09:50.575Z,8.87
2019-02-16T01:10:50.579Z,8.95
2019-02-16T01:11:50.643Z,8.95
2019-02-16T01:12:50.559Z,8.88
2019-02-16T01:13:50.641Z,8.85
2019-02-16T01:14:50.578Z,8.94
2019-02-16T01:15:50.559Z,8.85
2019-02-16T01:16:50.487Z,8.79
2019-02-16T01:17:50.499Z,8.97
2019-02-16T01:18:50.504Z,8.89
2019-02-16T01:19:50.558Z,8.84
2019-02-16T01:20:50.450Z,8.84
2019-02-16T01:21:50.465Z,8.87
2019-02-16T01:22:50.443Z,8.84
2019-02-16T01:23:50.504Z,8.84
2019-02-16T01:24:50.426Z,8.85
2019-02-16T01:25:50.391Z,8.84
2019-02-16T01:26:51.326Z,8.74
2019-02-16T01:27:50.430Z,8.85
2019-02-16T01:28:50.387Z,8.89
2019-02-16T01:29:50.363Z,8.84
2019-02-16T01:30:51.215Z,8.94
2019-02-16T01:31:50.352Z,8.88
2019-02-16T01:32:50.397Z,8.89
2019-02-16T01:33:50.290Z,8.92
2019-02-16T01:34:51.213Z,8.92
2019-02-16T01:35:50.281Z,8.88
2019-02-16T01:36:50.261Z,8.84
2019-02-16T01:37:50.376Z,8.81
2019-02-16T01:38:50.350Z,8.81
2019-02-16T01:39:50.249Z,8.82
2019-02-16T01:40:50.247Z,8.81
2019-02-16T01:41:50.210Z,8.79
2019-02-16T01:42:50.204Z,8.74
2019-02-16T01:43:50.205Z,8.70
2019-02-16T01:44:50.250Z,8.63
2019-02-16T01:45:50.180Z,8.71
2019-02-16T01:46:50.710Z,8.71
2019-02-16T01:47:50.166Z,8.71
2019-02-16T01:48:50.144Z,8.73
2019-02-16T01:49:50.217Z,8.71
2019-02-16T01:50:50.324Z,8.67
2019-02-16T01:51:50.111Z,8.73
2019-02-16T01:52:50.114Z,8.79
2019-02-16T01:53:50.232Z,8.70
2019-02-16T01:54:50.148Z,8.67
2019-02-16T01:55:50.062Z,8.67
2019-02-16T01:56:50.112Z,8.63
2019-02-16T01:57:50.092Z,8.64
2019-02-16T01:58:50.038Z,8.63
2019-02-16T01:59:50.037Z,8.58
2019-02-16T02:00:49.987Z,8.58
2019-02-16T02:01:50.079Z,8.49
2019-02-16T02:02:49.961Z,8.53
2019-02-16T02:03:49.979Z,8.53
2019-02-16T02:04:50.007Z,8.53
2019-02-16T02:05:49.949Z,8.49
2019-02-16T02:06:49.957Z,8.48
2019-02-16T02:07:49.983Z,8.46
2019-02-16T02:08:49.908Z,8.46
2019-02-16T02:09:50.716Z,8.52
2019-02-16T02:10:49.871Z,8.53
2019-02-16T02:11:50.123Z,8.51
2019-02-16T02:12:49.976Z,8.51
2019-02-16T02:13:49.880Z,8.48
2019-02-16T02:14:50.716Z,8.53
2019-02-16T02:15:49.847Z,8.49
2019-02-16T02:16:49.824Z,8.51
2019-02-16T02:17:49.841Z,8.37
2019-02-16T02:18:49.869Z,8.55
2019-02-16T02:19:49.784Z,8.49
2019-02-16T02:20:49.787Z,8.42
2019-02-16T02:21:49.760Z,8.41
2019-02-16T02:22:49.735Z,8.46
2019-02-16T02:23:49.839Z,8.48
2019-02-16T02:24:49.758Z,8.44
2019-02-16T02:25:49.687Z,8.46
2019-02-16T02:26:49.722Z,8.42
2019-02-16T02:27:49.683Z,8.36
2019-02-16T02:28:49.682Z,8.44
2019-02-16T02:29:49.743Z,8.38
2019-02-16T02:30:49.676Z,8.38
2019-02-16T02:31:49.663Z,8.38
2019-02-16T02:32:49.624Z,8.37
2019-02-16T02:33:49.706Z,8.31
2019-02-16T02:34:49.645Z,8.30
2019-02-16T02:35:50.221Z,8.28
2019-02-16T02:36:49.757Z,8.28
2019-02-16T02:37:49.593Z,8.27
2019-02-16T02:38:49.591Z,8.26
2019-02-16T02:39:49.643Z,8.23
2019-02-16T02:40:49.611Z,8.26
2019-02-16T02:41:49.614Z,8.20
2019-02-16T02:42:49.563Z,8.20
2019-02-16T02:43:49.507Z,8.23
2019-02-16T02:44:49.536Z,8.23
2019-02-16T02:45:49.505Z,8.24
2019-02-16T02:46:49.460Z,8.18
2019-02-16T02:47:49.575Z,8.20
2019-02-16T02:48:49.466Z,8.19
2019-02-16T02:49:49.493Z,8.23
2019-02-16T02:50:49.426Z,8.16
2019-02-16T02:51:51.943Z,8.20
2019-02-16T02:52:49.449Z,8.16
2019-02-16T02:53:49.496Z,8.24
2019-02-16T02:54:49.389Z,8.23
2019-02-16T02:55:49.400Z,8.19
2019-02-16T02:56:49.627Z,8.27
2019-02-16T02:57:49.386Z,8.18
2019-02-16T02:58:49.422Z,8.19
2019-02-16T02:59:49.320Z,8.18
2019-02-16T03:00:49.351Z,8.20
2019-02-16T03:01:49.311Z,8.28
2019-02-16T03:02:49.277Z,8.27
2019-02-16T03:03:49.331Z,8.20
2019-02-16T03:04:49.337Z,8.23
2019-02-16T03:05:49.269Z,8.30
2019-02-16T03:06:49.253Z,8.24
2019-02-16T03:07:49.241Z,8.26
2019-02-16T03:08:49.245Z,8.31
2019-02-16T03:09:49.302Z,8.26
2019-02-16T03:10:49.210Z,8.30
2019-02-16T03:11:49.234Z,8.33
2019-02-16T03:12:49.228Z,8.31
2019-02-16T03:13:49.192Z,8.28
2019-02-16T03:14:49.142Z,8.23
2019-02-16T03:15:49.149Z,8.24
2019-02-16T03:16:49.730Z,8.37
2019-02-16T03:17:49.198Z,8.36
2019-02-16T03:18:49.138Z,8.34
2019-02-16T03:19:49.122Z,8.27
2019-02-16T03:20:49.118Z,8.26
2019-02-16T03:21:49.076Z,8.28
2019-02-16T03:22:49.110Z,8.27
2019-02-16T03:23:49.142Z,8.33
2019-02-16T03:24:49.037Z,8.28
2019-02-16T03:25:49.028Z,8.27
2019-02-16T03:26:49.064Z,8.31
2019-02-16T03:27:49.026Z,8.30
2019-02-16T03:28:49.060Z,8.23
2019-02-16T03:29:48.987Z,8.26
2019-02-16T03:30:49.054Z,8.27
2019-02-16T03:31:48.987Z,8.20
2019-02-16T03:32:48.969Z,8.26
2019-02-16T03:33:48.968Z,8.24
2019-02-16T03:34:48.966Z,8.20
2019-02-16T03:35:48.943Z,8.16
2019-02-16T03:36:49.000Z,8.20
2019-02-16T03:37:48.957Z,8.16
2019-02-16T03:38:48.912Z,8.13
2019-02-16T03:39:48.971Z,8.12
2019-02-16T03:40:48.869Z,8.13
2019-02-16T03:41:48.884Z,8.09
2019-02-16T03:42:48.889Z,8.12
2019-02-16T03:43:49.730Z,8.03
2019-02-16T03:44:48.833Z,8.05
2019-02-16T03:45:48.792Z,8.05
2019-02-16T03:46:48.852Z,7.95
2019-02-16T03:47:48.832Z,8.08
2019-02-16T03:48:48.775Z,7.95
2019-02-16T03:49:48.870Z,7.93
2019-02-16T03:50:48.750Z,7.90
2019-02-16T03:51:48.732Z,7.94
2019-02-16T03:52:48.725Z,8.05
2019-02-16T03:53:48.743Z,7.93
2019-02-16T03:54:48.778Z,7.93
2019-02-16T03:55:48.709Z,7.90
2019-02-16T03:56:48.679Z,7.85
2019-02-16T03:57:48.709Z,7.83
2019-02-16T03:58:48.666Z,7.80
2019-02-16T03:59:48.858Z,7.80
2019-02-16T04:00:48.705Z,7.66
2019-02-16T04:01:48.694Z,7.73
2019-02-16T04:02:48.707Z,7.75
2019-02-16T04:03:48.629Z,7.66
2019-02-16T04:04:48.587Z,7.61
2019-02-16T04:05:49.237Z,7.56
2019-02-16T04:06:48.672Z,7.56
2019-02-16T04:07:48.576Z,7.47
2019-02-16T04:08:48.726Z,7.57
2019-02-16T04:09:48.617Z,7.45
2019-02-16T04:10:48.567Z,7.40
2019-02-16T04:11:48.573Z,7.43
2019-02-16T04:12:48.503Z,7.38
2019-02-16T04:13:48.584Z,7.32
2019-02-16T04:14:48.491Z,7.29
2019-02-16T04:15:48.479Z,7.25
2019-02-16T04:16:48.517Z,7.24
2019-02-16T04:17:48.453Z,7.14
2019-02-16T04:18:48.458Z,7.05
2019-02-16T04:19:48.471Z,7.10
2019-02-16T04:20:48.512Z,7.02
2019-02-16T04:21:48.420Z,7.02
2019-02-16T04:22:48.424Z,6.95
2019-02-16T04:23:48.403Z,6.92
2019-02-16T04:24:48.361Z,6.89
2019-02-16T04:25:48.419Z,6.85
2019-02-16T04:26:48.566Z,6.89
2019-02-16T04:27:48.353Z,6.66
2019-02-16T04:28:48.327Z,6.75
2019-02-16T04:29:49.243Z,6.64
2019-02-16T04:30:48.304Z,6.56
2019-02-16T04:31:48.307Z,6.51
2019-02-16T04:32:48.371Z,6.42
2019-02-16T04:33:48.288Z,6.57
2019-02-16T04:34:48.287Z,6.54
2019-02-16T04:35:48.335Z,6.41
2019-02-16T04:36:48.268Z,6.36
2019-02-16T04:37:48.250Z,6.38
2019-02-16T04:38:48.217Z,6.27
2019-02-16T04:39:48.203Z,6.30
2019-02-16T04:40:48.213Z,6.22
2019-02-16T04:41:48.208Z,6.24
2019-02-16T04:42:48.266Z,6.27
2019-02-16T04:43:48.210Z,6.33
2019-02-16T04:44:48.162Z,6.20
2019-02-16T04:45:48.254Z,6.16
2019-02-16T04:46:48.141Z,6.28
2019-02-16T04:47:48.152Z,6.17
2019-02-16T04:48:48.374Z,6.11
2019-02-16T04:49:48.096Z,6.20
2019-02-16T04:50:48.743Z,6.01
2019-02-16T04:51:48.297Z,6.05
2019-02-16T04:52:48.085Z,6.09
2019-02-16T04:53:48.064Z,5.99
2019-02-16T04:54:48.187Z,5.87
2019-02-16T04:55:48.074Z,5.89
2019-02-16T04:56:48.261Z,5.89
2019-02-16T04:57:48.009Z,5.83
2019-02-16T04:58:48.101Z,5.82
2019-02-16T04:59:48.143Z,5.86
2019-02-16T05:00:48.028Z,5.80
2019-02-16T05:01:47.983Z,5.69
2019-02-16T05:02:48.358Z,5.65
2019-02-16T05:03:47.974Z,5.64
2019-02-16T05:04:47.919Z,5.62
2019-02-16T05:05:48.136Z,5.59
2019-02-16T05:06:48.259Z,5.61
2019-02-16T05:07:47.964Z,5.56
2019-02-16T05:08:47.955Z,5.47
2019-02-16T05:09:47.872Z,5.44
2019-02-16T05:10:48.011Z,5.44
2019-02-16T05:11:47.863Z,5.33
2019-02-16T05:12:47.903Z,5.43
2019-02-16T05:13:47.893Z,5.38
2019-02-16T05:14:47.803Z,5.36
2019-02-16T05:15:47.822Z,5.33
2019-02-16T05:16:47.807Z,5.29
2019-02-16T05:17:47.778Z,5.25
2019-02-16T05:18:47.801Z,5.25
2019-02-16T05:19:48.052Z,5.25
2019-02-16T05:20:47.822Z,5.21
2019-02-16T05:21:47.753Z,5.20
2019-02-16T05:22:47.759Z,5.20
2019-02-16T05:23:47.729Z,5.17
2019-02-16T05:24:47.749Z,5.23
2019-02-16T05:25:47.750Z,5.25
2019-02-16T05:26:47.707Z,5.17
2019-02-16T05:27:47.677Z,5.17
2019-02-16T05:28:47.651Z,5.20
2019-02-16T05:29:47.795Z,5.21
2019-02-16T05:30:47.719Z,5.17
2019-02-16T05:31:47.623Z,5.17
2019-02-16T05:32:47.662Z,5.17
2019-02-16T05:33:47.621Z,5.17
2019-02-16T05:34:47.606Z,5.18
2019-02-16T05:35:47.594Z,5.25
2019-02-16T05:36:47.626Z,5.28
2019-02-16T05:37:47.615Z,5.25
2019-02-16T05:38:47.540Z,5.26
2019-02-16T05:39:47.613Z,5.20
2019-02-16T05:40:47.554Z,5.25
2019-02-16T05:41:47.580Z,5.15
2019-02-16T05:42:47.513Z,5.14
2019-02-16T05:43:47.508Z,5.15
2019-02-16T05:44:47.637Z,5.15
2019-02-16T05:45:47.681Z,5.17
2019-02-16T05:46:47.470Z,5.18
2019-02-16T05:47:47.449Z,5.18
2019-02-16T05:48:47.590Z,5.15
2019-02-16T05:49:47.446Z,5.20
2019-02-16T05:50:47.561Z,5.25
2019-02-16T05:51:47.438Z,5.21
2019-02-16T05:52:54.010Z,5.32
2019-02-16T05:53:48.638Z,5.41
2019-02-16T05:54:47.402Z,5.30
2019-02-16T05:55:47.362Z,5.38
2019-02-16T05:56:47.360Z,5.41
2019-02-16T05:57:47.405Z,5.33
2019-02-16T05:58:47.361Z,5.30
2019-02-16T05:59:48.290Z,5.38
2019-02-16T06:00:47.379Z,5.38
2019-02-16T06:01:54.023Z,5.29
2019-02-16T06:02:48.299Z,5.33
2019-02-16T06:03:47.276Z,5.46
2019-02-16T06:04:47.307Z,5.35
2019-02-16T06:05:48.255Z,5.41
2019-02-16T06:06:47.340Z,5.44
2019-02-16T06:07:47.222Z,5.48
2019-02-16T06:08:47.253Z,5.48
2019-02-16T06:09:47.218Z,5.51
2019-02-16T06:10:47.245Z,5.62
2019-02-16T06:11:47.241Z,5.57
2019-02-16T06:12:47.180Z,5.56
2019-02-16T06:13:47.169Z,5.65
2019-02-16T06:14:47.183Z,5.71
2019-02-16T06:15:47.308Z,5.68
2019-02-16T06:16:47.169Z,5.69
2019-02-16T06:17:47.221Z,5.75
2019-02-16T06:18:47.146Z,5.73
2019-02-16T06:19:47.117Z,5.79
2019-02-16T06:20:47.072Z,5.82
2019-02-16T06:21:47.091Z,5.93
2019-02-16T06:22:47.100Z,5.83
2019-02-16T06:23:47.107Z,5.99
2019-02-16T06:24:47.048Z,5.89
2019-02-16T06:25:47.213Z,5.89
2019-02-16T06:26:47.179Z,5.89
2019-02-16T06:27:47.073Z,6.02
2019-02-16T06:28:47.114Z,5.93
2019-02-16T06:29:47.298Z,5.98
2019-02-16T06:30:47.129Z,6.07
2019-02-16T06:31:46.989Z,6.01
2019-02-16T06:32:46.973Z,6.09
2019-02-16T06:33:46.984Z,6.08
2019-02-16T06:34:47.060Z,6.05
2019-02-16T06:35:46.947Z,6.08
2019-02-16T06:36:46.912Z,6.09
2019-02-16T06:37:47.005Z,6.05
2019-02-16T06:38:46.901Z,6.05
2019-02-16T06:39:46.876Z,6.14
2019-02-16T06:40:46.933Z,6.07
2019-02-16T06:41:46.845Z,6.20
2019-02-16T06:42:46.843Z,6.08
2019-02-16T06:43:46.867Z,6.17
2019-02-16T06:44:46.843Z,6.14
2019-02-16T06:45:46.922Z,6.11
2019-02-16T06:46:46.857Z,6.09
2019-02-16T06:47:46.787Z,6.19
2019-02-16T06:48:46.769Z,6.16
2019-02-16T06:49:46.777Z,6.16
2019-02-16T06:50:46.769Z,6.26
2019-02-16T06:51:46.814Z,6.26
2019-02-16T06:52:46.719Z,6.24
2019-02-16T06:53:46.713Z,6.19
2019-02-16T06:54:46.705Z,6.22
2019-02-16T06:55:46.759Z,6.24
2019-02-16T06:56:46.798Z,6.20
2019-02-16T06:57:46.679Z,6.26
2019-02-16T06:58:46.674Z,6.26
2019-02-16T06:59:46.677Z,6.22
2019-02-16T07:00:46.659Z,6.20
2019-02-16T07:01:46.725Z,6.30
2019-02-16T07:02:47.263Z,6.26
2019-02-16T07:03:46.712Z,6.24
2019-02-16T07:04:46.630Z,6.24
2019-02-16T07:05:46.595Z,6.17
2019-02-16T07:06:46.639Z,6.24
2019-02-16T07:07:46.576Z,6.17
2019-02-16T07:08:46.615Z,6.22
2019-02-16T07:09:46.564Z,6.20
2019-02-16T07:10:46.531Z,6.27
2019-02-16T07:11:46.538Z,6.17
2019-02-16T07:12:46.678Z,6.22
2019-02-16T07:13:46.511Z,6.22
2019-02-16T07:14:46.625Z,6.28
2019-02-16T07:15:46.465Z,6.19
2019-02-16T07:16:47.271Z,6.27
2019-02-16T07:17:47.267Z,6.24
2019-02-16T07:18:46.538Z,6.24
2019-02-16T07:19:46.450Z,6.35
2019-02-16T07:20:46.468Z,6.33
2019-02-16T07:21:46.470Z,6.35
2019-02-16T07:22:46.425Z,6.33
2019-02-16T07:23:46.392Z,6.38
2019-02-16T07:24:46.503Z,6.33
2019-02-16T07:25:46.428Z,6.35
2019-02-16T07:26:46.377Z,6.33
2019-02-16T07:27:46.376Z,6.36
2019-02-16T07:28:46.432Z,6.44
2019-02-16T07:29:46.330Z,6.42
2019-02-16T07:30:46.565Z,6.46
2019-02-16T07:31:46.423Z,6.56
2019-02-16T07:32:46.368Z,6.42
2019-02-16T07:33:46.419Z,6.48
2019-02-16T07:34:46.292Z,6.56
2019-02-16T07:35:46.287Z,6.57
2019-02-16T07:36:46.298Z,6.67
2019-02-16T07:37:46.280Z,6.70
2019-02-16T07:38:46.278Z,6.66
2019-02-16T07:39:46.208Z,6.72
2019-02-16T07:40:46.290Z,6.74
2019-02-16T07:41:46.788Z,6.72
2019-02-16T07:42:46.175Z,6.66
2019-02-16T07:43:46.164Z,6.74
2019-02-16T07:44:46.276Z,6.77
2019-02-16T07:45:46.201Z,6.79
2019-02-16T07:46:46.119Z,6.85
2019-02-16T07:47:46.131Z,6.87
2019-02-16T07:48:46.106Z,6.82
2019-02-16T07:49:46.117Z,6.95
2019-02-16T07:50:46.167Z,6.93
2019-02-16T07:51:46.076Z,7.03
2019-02-16T07:52:46.086Z,7.02
2019-02-16T07:53:46.051Z,7.10
2019-02-16T07:54:46.022Z,7.14
2019-02-16T07:55:46.024Z,7.10
2019-02-16T07:56:46.145Z,7.06
2019-02-16T07:57:46.086Z,7.07
2019-02-16T07:58:46.777Z,7.15
2019-02-16T07:59:46.053Z,7.18
2019-02-16T08:00:46.101Z,7.13
2019-02-16T08:01:45.971Z,7.21
2019-02-16T08:02:45.943Z,7.28
2019-02-16T08:03:45.951Z,7.28
2019-02-16T08:04:45.960Z,7.21
2019-02-16T08:05:45.903Z,7.21
2019-02-16T08:06:45.904Z,7.29
2019-02-16T08:07:45.913Z,7.33
2019-02-16T08:08:45.893Z,7.45
2019-02-16T08:09:45.945Z,7.33
2019-02-16T08:10:45.872Z,7.43
2019-02-16T08:11:45.848Z,7.48
2019-02-16T08:12:45.830Z,7.48
2019-02-16T08:13:46.786Z,7.43
2019-02-16T08:14:45.816Z,7.48
2019-02-16T08:15:45.879Z,7.51
2019-02-16T08:16:45.788Z,7.56
2019-02-16T08:17:45.764Z,7.56
2019-02-16T08:18:45.782Z,7.67
2019-02-16T08:19:45.873Z,7.80
2019-02-16T08:20:45.847Z,7.76
2019-02-16T08:21:46.040Z,7.91
2019-02-16T08:22:45.723Z,7.98
2019-02-16T08:23:45.711Z,7.87
2019-02-16T08:24:45.756Z,7.97
2019-02-16T08:25:45.696Z,8.09
2019-02-16T08:26:45.684Z,7.95
2019-02-16T08:27:45.698Z,8.09
2019-02-16T08:28:45.684Z,8.06
2019-02-16T08:29:45.677Z,8.16
2019-02-16T08:30:45.630Z,8.12
2019-02-16T08:31:45.657Z,8.16
2019-02-16T08:32:45.603Z,8.18
2019-02-16T08:33:45.607Z,8.19
2019-02-16T08:34:45.613Z,8.26
2019-02-16T08:35:45.583Z,8.27
2019-02-16T08:36:45.551Z,8.31
2019-02-16T08:37:45.679Z,8.28
2019-02-16T08:38:45.548Z,8.44
2019-02-16T08:39:45.520Z,8.42
2019-02-16T08:40:45.565Z,8.37
2019-02-16T08:41:45.519Z,8.46
2019-02-16T08:42:45.501Z,8.51
2019-02-16T08:43:45.549Z,8.52
2019-02-16T08:44:45.529Z,8.53
2019-02-16T08:45:45.457Z,8.55
2019-02-16T08:46:45.496Z,8.63
2019-02-16T08:47:45.439Z,8.63
2019-02-16T08:48:45.498Z,8.64
2019-02-16T08:49:45.457Z,8.73
2019-02-16T08:50:45.460Z,8.71
2019-02-16T08:51:45.404Z,8.84
2019-02-16T08:52:45.383Z,8.82
2019-02-16T08:53:49.759Z,8.88
2019-02-16T08:54:46.281Z,8.88
2019-02-16T08:55:47.041Z,8.99
2019-02-16T08:56:45.546Z,8.92
2019-02-16T08:57:45.322Z,9.00
2019-02-16T08:58:45.312Z,8.97
2019-02-16T08:59:45.304Z,9.13
2019-02-16T09:00:45.296Z,9.06
2019-02-16T09:01:45.476Z,9.11
2019-02-16T09:02:45.257Z,9.08
2019-02-16T09:03:45.357Z,9.11
2019-02-16T09:04:45.445Z,9.13
2019-02-16T09:05:45.241Z,9.21
2019-02-16T09:06:45.224Z,9.25
2019-02-16T09:07:45.407Z,9.26
2019-02-16T09:08:45.224Z,9.29
2019-02-16T09:09:45.192Z,9.28
2019-02-16T09:10:45.177Z,9.40
2019-02-16T09:11:45.268Z,9.32
2019-02-16T09:12:45.144Z,9.39
2019-02-16T09:13:45.787Z,9.43
2019-02-16T09:14:45.212Z,9.43
2019-02-16T09:15:45.126Z,9.46
2019-02-16T09:16:45.113Z,9.44
2019-02-16T09:17:45.394Z,9.43
2019-02-16T09:18:45.090Z,9.48
2019-02-16T09:19:45.178Z,9.54
2019-02-16T09:20:45.247Z,9.61
2019-02-16T09:21:45.084Z,9.56
2019-02-16T09:22:45.128Z,9.62
2019-02-16T09:23:45.115Z,9.61
2019-02-16T09:24:45.053Z,9.62
2019-02-16T09:25:45.015Z,9.72
2019-02-16T09:26:45.108Z,9.73
2019-02-16T09:27:44.993Z,9.73
2019-02-16T09:28:45.027Z,9.72
2019-02-16T09:29:45.062Z,9.80
2019-02-16T09:30:45.002Z,9.87
2019-02-16T09:31:44.944Z,9.83
2019-02-16T09:32:44.954Z,9.95
2019-02-16T09:33:44.962Z,9.92
2019-02-16T09:34:45.019Z,9.87
2019-02-16T09:35:44.915Z,9.92
2019-02-16T09:36:44.966Z,9.89
2019-02-16T09:37:44.884Z,9.95
2019-02-16T09:38:44.889Z,9.95
2019-02-16T09:39:44.854Z,10.02
2019-02-16T09:40:44.933Z,10.02
2019-02-16T09:41:44.825Z,9.99
2019-02-16T09:42:44.825Z,10.04
2019-02-16T09:43:44.843Z,10.09
2019-02-16T09:44:44.804Z,10.09
2019-02-16T09:45:44.874Z,10.16
2019-02-16T09:46:44.792Z,10.23
2019-02-16T09:47:44.781Z,10.17
2019-02-16T09:48:44.768Z,10.25
2019-02-16T09:49:44.744Z,10.23
2019-02-16T09:50:44.861Z,10.30
2019-02-16T09:51:44.773Z,10.35
2019-02-16T09:52:44.721Z,10.31
2019-02-16T09:53:44.717Z,10.37
2019-02-16T09:54:44.753Z,10.40
2019-02-16T09:56:46.302Z,10.53
2019-02-16T09:57:44.742Z,10.40
2019-02-16T09:58:44.660Z,10.49
2019-02-16T09:59:44.640Z,10.49
2019-02-16T10:00:44.635Z,10.49
2019-02-16T10:01:44.622Z,10.56
2019-02-16T10:02:44.753Z,10.54
2019-02-16T10:03:44.638Z,10.42
2019-02-16T10:04:44.697Z,10.61
2019-02-16T10:05:44.629Z,10.64
2019-02-16T10:06:44.584Z,10.63
2019-02-16T10:07:44.549Z,10.68
2019-02-16T10:08:44.619Z,10.67
2019-02-16T10:09:44.544Z,10.75
2019-02-16T10:10:44.524Z,10.76
2019-02-16T10:11:44.508Z,10.71
2019-02-16T10:12:44.639Z,10.76
2019-02-16T10:13:44.523Z,10.72
2019-02-16T10:14:44.509Z,10.72
2019-02-16T10:15:44.472Z,10.89
2019-02-16T10:16:44.487Z,10.82
2019-02-16T10:17:44.523Z,10.76
2019-02-16T10:18:44.425Z,10.75
2019-02-16T10:19:44.463Z,10.76
2019-02-16T10:20:44.479Z,10.81
2019-02-16T10:21:44.396Z,10.89
2019-02-16T10:22:44.441Z,10.89
2019-02-16T10:23:44.364Z,10.89
2019-02-16T10:24:44.368Z,10.99
2019-02-16T10:25:44.391Z,11.00
2019-02-16T10:26:44.458Z,11.04
2019-02-16T10:27:44.317Z,10.94
2019-02-16T10:28:44.339Z,11.05
2019-02-16T10:29:51.410Z,11.12
2019-02-16T10:30:44.356Z,11.11
2019-02-16T10:31:44.269Z,11.12
2019-02-16T10:32:44.266Z,11.19
2019-02-16T10:33:44.269Z,11.25
2019-02-16T10:34:44.253Z,11.22
2019-02-16T10:35:44.241Z,11.23
2019-02-16T10:36:44.271Z,11.32
2019-02-16T10:37:44.212Z,11.29
2019-02-16T10:38:44.201Z,11.35
2019-02-16T10:39:44.190Z,11.41
2019-02-16T10:40:44.187Z,11.44
2019-02-16T10:41:44.234Z,11.51
2019-02-16T10:42:44.265Z,11.51
2019-02-16T10:43:44.129Z,11.52
2019-02-16T10:44:44.125Z,11.60
2019-02-16T10:45:44.112Z,11.60
2019-02-16T10:46:44.137Z,11.59
2019-02-16T10:47:44.114Z,11.70
2019-02-16T10:48:44.124Z,11.75
2019-02-16T10:49:44.115Z,11.78
2019-02-16T10:50:44.133Z,11.73
2019-02-16T10:51:44.037Z,11.84
2019-02-16T10:52:44.171Z,11.90
2019-02-16T10:53:44.020Z,11.90
2019-02-16T10:54:44.017Z,11.95
2019-02-16T10:55:44.029Z,11.94
2019-02-16T10:56:44.003Z,11.91
2019-02-16T10:57:44.027Z,11.95
2019-02-16T10:58:44.017Z,12.12
2019-02-16T10:59:45.838Z,12.03
2019-02-16T11:00:43.972Z,12.10
2019-02-16T11:01:43.940Z,12.06
2019-02-16T11:02:44.156Z,12.06
2019-02-16T11:03:43.958Z,12.12
2019-02-16T11:04:43.888Z,12.06
2019-02-16T11:05:44.018Z,12.12
2019-02-16T11:06:43.966Z,12.18
2019-02-16T11:07:43.977Z,12.25
2019-02-16T11:08:43.883Z,12.28
2019-02-16T11:09:43.830Z,12.29
2019-02-16T11:10:43.942Z,12.32
2019-02-16T11:11:45.452Z,12.39
2019-02-16T11:12:43.891Z,12.31
2019-02-16T11:13:43.808Z,12.31
2019-02-16T11:14:43.803Z,12.40
2019-02-16T11:15:43.937Z,12.28
2019-02-16T11:16:43.820Z,12.29
2019-02-16T11:17:43.813Z,12.39
2019-02-16T11:18:43.762Z,12.40
2019-02-16T11:19:43.819Z,12.46
2019-02-16T11:20:43.840Z,12.49
2019-02-16T11:21:43.765Z,12.42
2019-02-16T11:22:43.707Z,12.50
2019-02-16T11:23:45.410Z,12.55
2019-02-16T11:24:43.663Z,12.61
2019-02-16T11:25:43.652Z,12.54
2019-02-16T11:26:44.044Z,12.58
2019-02-16T11:27:43.636Z,12.67
2019-02-16T11:28:43.683Z,12.72
2019-02-16T11:29:43.742Z,12.68
2019-02-16T11:30:43.593Z,12.65
2019-02-16T11:31:43.591Z,12.78
2019-02-16T11:32:43.679Z,12.76
2019-02-16T11:33:43.629Z,12.85
2019-02-16T11:34:43.548Z,12.94
2019-02-16T11:35:43.619Z,12.94
2019-02-16T11:36:43.531Z,12.95
2019-02-16T11:37:43.547Z,13.00
2019-02-16T11:38:43.617Z,13.01
2019-02-16T11:39:43.504Z,13.05
2019-02-16T11:40:43.574Z,13.13
2019-02-16T11:41:43.484Z,13.19
2019-02-16T11:42:43.619Z,13.09
2019-02-16T11:43:43.450Z,13.09
2019-02-16T11:44:43.458Z,13.09
2019-02-16T11:45:43.438Z,13.11
2019-02-16T11:46:43.418Z,13.11
2019-02-16T11:47:43.416Z,13.15
2019-02-16T11:48:43.513Z,13.18
2019-02-16T11:49:43.496Z,13.22
2019-02-16T11:50:43.432Z,13.19
2019-02-16T11:51:43.475Z,13.23
2019-02-16T11:52:43.369Z,13.19
2019-02-16T11:53:43.337Z,13.25
2019-02-16T11:54:45.632Z,13.27
2019-02-16T11:55:43.334Z,13.22
2019-02-16T11:56:43.308Z,13.25
2019-02-16T11:57:43.356Z,13.33
2019-02-16T11:58:43.294Z,13.31
2019-02-16T11:59:43.362Z,13.44
2019-02-16T12:00:43.266Z,13.44
2019-02-16T12:01:43.315Z,13.47
2019-02-16T12:02:43.286Z,13.52
2019-02-16T12:03:43.225Z,13.50
2019-02-16T12:04:43.261Z,13.57
2019-02-16T12:05:43.263Z,13.59
2019-02-16T12:06:43.295Z,13.62
2019-02-16T12:07:43.214Z,13.60
2019-02-16T12:08:43.205Z,13.70
2019-02-16T12:09:43.170Z,13.62
2019-02-16T12:10:43.212Z,13.67
2019-02-16T12:11:43.285Z,13.70
2019-02-16T12:12:43.303Z,13.72
2019-02-16T12:13:43.114Z,13.71
2019-02-16T12:14:43.115Z,13.78
2019-02-16T12:15:43.122Z,13.74
2019-02-16T12:16:43.137Z,13.70
2019-02-16T12:17:43.121Z,13.75
2019-02-16T12:18:43.124Z,13.75
2019-02-16T12:19:43.068Z,13.78
2019-02-16T12:20:43.062Z,13.79
2019-02-16T12:21:43.032Z,13.85
2019-02-16T12:22:43.017Z,13.89
2019-02-16T12:23:43.130Z,13.95
2019-02-16T12:24:43.037Z,14.04
2019-02-16T12:25:43.008Z,14.05
2019-02-16T12:26:43.045Z,14.10
2019-02-16T12:27:42.986Z,14.30
2019-02-16T12:28:43.014Z,14.45
2019-02-16T12:29:42.969Z,14.84
2019-02-16T12:30:42.925Z,14.92
2019-02-16T12:31:42.924Z,15.11
2019-02-16T12:32:42.921Z,15.06
2019-02-16T12:33:42.921Z,15.02
2019-02-16T12:34:42.884Z,14.92
2019-02-16T12:35:42.889Z,14.92
2019-02-16T12:36:42.863Z,14.89
2019-02-16T12:37:42.850Z,14.91
2019-02-16T12:38:42.844Z,15.03
2019-02-16T12:39:42.825Z,15.24
2019-02-16T12:40:42.863Z,15.47
2019-02-16T12:41:42.805Z,15.88
2019-02-16T12:42:42.989Z,16.42
2019-02-16T12:43:42.778Z,16.68
2019-02-16T12:44:42.772Z,17.06
2019-02-16T12:45:50.878Z,17.44
2019-02-16T12:46:43.791Z,17.67
2019-02-16T12:47:42.753Z,17.86
2019-02-16T12:48:42.722Z,17.86
2019-02-16T12:49:42.708Z,18.04
2019-02-16T12:50:42.704Z,18.13
2019-02-16T12:51:42.691Z,18.15
2019-02-16T12:52:42.695Z,18.11
2019-02-16T12:53:42.686Z,18.19
2019-02-16T12:54:42.661Z,18.05
2019-02-16T12:55:42.669Z,17.92
2019-02-16T12:56:42.632Z,17.94
2019-02-16T12:57:42.651Z,17.85
2019-02-16T12:58:42.617Z,17.94
2019-02-16T12:59:42.602Z,17.82
2019-02-16T13:00:42.587Z,17.87
2019-02-16T13:01:42.615Z,17.71
2019-02-16T13:02:42.576Z,17.63
2019-02-16T13:03:42.581Z,17.64
2019-02-16T13:04:42.560Z,17.52
2019-02-16T13:05:42.534Z,17.45
2019-02-16T13:06:42.522Z,17.42
2019-02-16T13:07:42.521Z,17.52
2019-02-16T13:08:42.521Z,17.30
2019-02-16T13:09:42.487Z,17.26
2019-02-16T13:10:42.481Z,17.20
2019-02-16T13:11:42.480Z,17.26
2019-02-16T13:12:42.451Z,17.27